Birmingham, Illinois
Current Conditions -  °F | °C
As of 9:35 AM on Saturday 20 Dec 2014 (Local Time) from KMQB Reporting Station
Haze Haze  
Wind Chill: 26°   Ceiling: 3200
Heat Index: 32°   Visibility: 4mi
Dew Point: 29°   Wind: 7mph
Humidity: 89%   Direction: 150°SSE
Pressure: 30.28"   Gusts: NA
Location:  40.2814°N, 90.8526°W
Report Text: KMQB 201535Z AUTO 15006KT 4SM BR OVC032 00/M02 A3028 RMK AO2 T00001016
Loading
Personal Weather Stations






























Interactive Weather Map New forecast layout! Learn more

10-Day Weather Forecast

Advertisements
Track Severe Weather on mobile